Aviation Digital Data Service (ADDS)

Output produced by METARs form (1802 UTC 19 October 2017)
found at http://www.aviationweather.gov/adds/metars/
 
MHSC 191758Z 33007KT 9999 BKN050 BKN150 BKN180 27/27 A2996 RMK AO2A SLP106 T02710267 10276 20214 58021 $
TAF MHSC 191300Z 1913/2019 35006KT 9999 SCT030 BKN040 BKN100 QNH2992INS 
     BECMG 1916/1917 35009KT 9999 FEW030 SCT050 SCT100 QNH2985INS 
     BECMG 1922/1923 35012KT 9999 VCTS BKN020CB OVC100 QNH2982INS 
     BECMG 2003/2004 35009KT 9999 VCSH SCT020 BKN050 OVC100 QNH2984INS 
     BECMG 2011/2012 35006KT 9999 NSW SCT030 BKN070 QNH2986INS TX27/1921Z TN21/1913Z
       
MHLC 191800Z 29005KT 9999 SCT020CB SCT200 29/25 Q1013 A2992 NOSIG
TAF MHLC 191625Z 1918/2018 36004KT 9999 SCT024TCU SCT080 TX31/1921Z TN24/2012Z 
     TEMPO 1920/2000 6000 -TSRA SCT025CB BKN080 
     BECMG 2000/2002 9999 NSW SCT022 BKN070 
     BECMG 2008/2010 16004KT 
     BECMG 2014/2016 34005KT SCT026 SCT080
       
MHRO 191800Z 16003KT 9999 SCT018CB BKN070 29/26 Q1013 A2992 RERA NOSIG
TAF MHRO 191625Z 1918/2018 35004KT 9999 SCT022TCU BKN070 TX30/1919Z TN26/2012Z 
     PROB30 2005/2007 09008KT 7000 -RA SCT018CB BKN070 
     BECMG 2010/2012 9999 NSW SCT020 SCT080
       
MHLM 191800Z 06008KT 9999 FEW028 30/27 Q1013 A2992 NOSIG
TAF MHLM 191625Z 1918/2018 02010KT 9999 SCT024 SCT080 TX33/1921Z TN24/2012Z 
     PROB30 1921/1923 8000 VCSH SCT026CB BKN080 
     BECMG 2003/2005 00000KT 9999 NSW SCT024 SCT080 
     BECMG 2013/2015 35004KT FEW026 SCT090
       
MHTG 191800Z 35010KT 9999 SCT028TCU SCT080 BKN200 25/19 Q1018 A3006 NOSIG
TAF MHTG 191625Z 1918/2018 02008KT 9999 SCT028TCU SCT080 TX27/1920Z TN18/2012Z 
     TEMPO 1921/2001 7000 SHRA SCT028CB SCT030TCU 
     BECMG 2001/2003 00000KT 9999 NSW SCT026 BKN070 
     BECMG 2010 /2012 36004KT FEW008 BKN025 
     BECMG 2015/2017 SCT028 SCT090
       
MHTE 191800Z 34006KT 9999 SCT026TCU SCT080 BKN250 30/25 Q1013 TCU W HZ